Time;durP1;ratioP1;P1;durP2;ratioP2;P2;SDS_P1;SDS_P2;PMS_P1;PMS_P2;Temp;Humidity;BMP_temperature;BMP_pressure;BME280_temperature;BME280_humidity;BME280_pressure;Samples;Min_cycle;Max_cycle;Signal;HPM_P1;HPM_P2
2022/10/01 00:01:16;;;;;;;4.47;2.72;;;9.70;99.90;;;8.54;91.21;99977.28;4960540;28;20035;-75
2022/10/01 00:03:43;;;;;;;4.38;2.55;;;9.80;99.90;;;8.76;87.68;99966.03;4960600;28;20062;-75
2022/10/01 00:06:15;;;;;;;3.57;2.17;;;10.00;99.90;;;8.97;85.61;99959.38;4962102;28;20375;-75
2022/10/01 00:08:47;;;;;;;6.03;2.70;;;10.20;99.90;;;9.16;83.67;99965.72;4958662;28;20038;-75
2022/10/01 00:11:23;;;;;;;9.15;2.42;;;10.40;99.90;;;9.18;83.70;99946.41;4964372;28;20034;-75
2022/10/01 00:13:50;;;;;;;6.13;2.33;;;10.50;99.90;;;9.10;85.03;99952.16;4963662;28;20042;-75
2022/10/01 00:16:21;;;;;;;6.43;2.50;;;10.40;99.90;;;9.03;85.12;99947.63;4966078;28;20058;-75
2022/10/01 00:18:49;;;;;;;5.18;2.63;;;10.40;99.90;;;9.02;85.38;99947.81;4962374;28;20086;-75
2022/10/01 00:21:25;;;;;;;5.57;2.75;;;10.40;99.90;;;8.98;86.45;99938.44;4961268;28;20074;-75
2022/10/01 00:24:03;;;;;;;6.30;2.50;;;10.30;99.90;;;9.10;84.53;99938.56;4964002;28;20034;-75
2022/10/01 00:26:33;;;;;;;3.90;2.70;;;10.40;99.90;;;9.04;85.66;99932.94;4962521;28;20027;-76
2022/10/01 00:29:03;;;;;;;6.80;2.92;;;10.40;99.90;;;8.88;86.87;99928.88;4965516;28;20507;-76
2022/10/01 00:31:30;;;;;;;4.97;2.83;;;10.30;99.90;;;8.77;88.90;99921.47;4963757;28;20042;-76
2022/10/01 00:33:58;;;;;;;9.18;3.00;;;10.20;99.90;;;8.72;89.65;99924.84;4963337;28;20035;-76
2022/10/01 00:36:26;;;;;;;5.35;2.90;;;10.10;99.90;;;8.71;89.43;99922.38;4960873;28;20050;-76
2022/10/01 00:38:52;;;;;;;5.57;3.23;;;10.10;99.90;;;8.65;90.27;99925.97;4964154;28;20114;-76
2022/10/01 00:41:18;;;;;;;4.88;2.83;;;10.00;99.90;;;8.78;89.15;99926.69;4963665;28;20119;-75
2022/10/01 00:43:49;;;;;;;5.05;2.70;;;10.10;99.90;;;8.84;88.32;99919.50;4965478;28;20031;-76
2022/10/01 00:46:30;;;;;;;5.20;2.80;;;10.10;99.90;;;8.90;87.71;99917.81;4958653;28;20045;-76
2022/10/01 00:49:05;;;;;;;4.00;2.35;;;10.20;99.90;;;8.98;86.69;99913.97;4961912;28;20046;-76
2022/10/01 00:51:43;;;;;;;5.80;2.72;;;10.30;99.90;;;9.10;85.79;99914.06;4960200;28;20075;-77
2022/10/01 00:54:49;;;;;;;4.78;2.40;;;10.40;99.90;;;9.12;85.57;99898.34;4958467;28;20082;-76
2022/10/01 00:57:23;;;;;;;5.75;2.70;;;10.50;99.90;;;9.04;85.97;99894.88;4965322;28;20049;-75
2022/10/01 00:59:52;;;;;;;6.18;2.95;;;10.40;99.90;;;9.05;86.05;99888.38;4965744;28;20474;-75
2022/10/01 01:02:17;;;;;;;;;;;10.40;99.90;;;9.11;85.39;99893.94;4963601;28;20035;-75
2022/10/01 01:04:43;;;;;;;7.00;2.60;;;10.40;99.90;;;9.01;86.35;99895.28;4965425;28;20001;-76
2022/10/01 01:07:11;;;;;;;6.38;2.60;;;10.40;99.90;;;8.99;86.08;99894.69;4962980;28;20038;-76
2022/10/01 01:09:45;;;;;;;5.47;3.05;;;10.40;99.90;;;8.99;85.16;99885.69;4960418;28;20437;-75
2022/10/01 01:12:43;;;;;;;5.50;3.38;;;10.40;99.90;;;9.02;85.44;99886.09;4961719;28;20067;-76
2022/10/01 01:15:45;;;;;;;4.72;2.75;;;10.40;99.90;;;9.07;84.48;99890.84;4965634;28;20034;-76
2022/10/01 01:18:33;;;;;;;4.10;2.40;;;10.40;99.90;;;9.03;84.68;99885.03;4975097;28;20112;-76
2022/10/01 01:21:20;;;;;;;4.68;2.58;;;10.40;99.90;;;9.02;84.78;99877.94;4967806;28;20037;-76
2022/10/01 01:24:39;;;;;;;4.32;2.50;;;10.40;99.90;;;9.00;85.17;99871.03;4959055;28;20109;-76
2022/10/01 01:27:30;;;;;;;4.80;2.50;;;10.30;99.90;;;8.95;85.28;99868.16;4966892;28;20058;-75
2022/10/01 01:30:13;;;;;;;4.85;2.58;;;10.30;99.90;;;8.93;86.20;99862.94;4965718;28;20030;-75
2022/10/01 01:33:15;;;;;;;7.80;2.70;;;10.30;99.90;;;8.88;86.70;99854.63;4966992;28;20039;-76
2022/10/01 01:35:50;;;;;;;4.80;2.42;;;10.30;99.90;;;8.83;87.51;99849.84;4969442;28;20062;-75
2022/10/01 01:38:29;;;;;;;6.78;2.60;;;10.20;99.90;;;8.72;88.57;99851.41;4965863;28;20485;-76
2022/10/01 01:41:01;;;;;;;5.15;2.75;;;10.10;99.90;;;8.63;90.22;99853.63;4965634;28;20372;-75
2022/10/01 01:43:36;;;;;;;6.22;2.90;;;10.00;99.90;;;8.41;91.68;99825.97;4968677;28;20041;-75
2022/10/01 01:46:07;;;;;;;8.15;2.83;;;9.90;99.90;;;8.51;91.28;99843.69;4968955;28;20037;-75
2022/10/01 01:48:36;;;;;;;7.25;2.78;;;9.90;99.90;;;8.49;91.73;99835.72;4967013;28;20062;-76
2022/10/01 01:51:16;;;;;;;7.50;3.45;;;9.90;99.90;;;8.51;91.40;99838.25;4963057;28;20054;-75
2022/10/01 01:53:42;;;;;;;4.75;2.63;;;9.80;99.90;;;8.51;91.66;99821.94;4964796;28;20039;-75
2022/10/01 01:56:08;;;;;;;5.95;2.95;;;9.90;99.90;;;8.49;90.96;99817.56;4964829;28;20106;-75
2022/10/01 01:58:36;;;;;;;6.18;2.90;;;9.90;99.90;;;8.55;90.74;99809.56;4968277;28;20046;-76
2022/10/01 02:01:02;;;;;;;;;;;9.90;99.90;;;8.56;90.73;99811.22;4968930;28;20066;-75
2022/10/01 02:03:31;;;;;;;5.25;2.80;;;9.90;99.90;;;8.56;89.57;99812.03;4965065;28;20013;-76
2022/10/01 02:06:39;;;;;;;4.68;2.70;;;9.90;99.90;;;8.66;88.80;99800.66;4962667;28;20196;-75
2022/10/01 02:09:32;;;;;;;4.55;2.60;;;10.00;99.90;;;8.69;88.55;99800.22;4960021;28;20050;-75
2022/10/01 02:13:05;;;;;;;5.53;2.80;;;10.10;99.90;;;8.76;87.53;99809.16;4967399;28;20027;-75
2022/10/01 02:16:03;;;;;;;8.00;2.70;;;10.10;99.90;;;8.75;87.52;99799.31;4966315;28;20042;-75
2022/10/01 02:18:55;;;;;;;5.70;2.70;;;10.10;99.90;;;8.76;87.29;99801.00;4966132;28;20026;-75
2022/10/01 02:21:45;;;;;;;5.13;2.72;;;10.10;99.90;;;8.78;87.53;99798.88;4963713;28;20185;-75
2022/10/01 02:24:31;;;;;;;4.63;2.70;;;10.10;99.90;;;8.85;86.60;99801.50;4963779;28;20390;-75
2022/10/01 02:27:05;;;;;;;5.88;2.60;;;10.20;99.90;;;9.04;84.65;99801.50;4963451;28;20030;-76
2022/10/01 02:29:34;;;;;;;4.15;2.45;;;10.30;99.90;;;9.07;83.14;99780.13;4965152;28;20162;-76
2022/10/01 02:32:01;;;;;;;5.78;2.40;;;10.40;99.90;;;9.24;81.92;99784.94;4966502;28;20026;-75
2022/10/01 02:34:29;;;;;;;3.35;2.10;;;10.60;99.90;;;9.28;80.50;99758.09;4962419;28;20291;-75
2022/10/01 02:37:01;;;;;;;5.22;2.60;;;10.70;99.90;;;9.52;79.23;99779.97;4964216;28;20030;-75
2022/10/01 02:39:31;;;;;;;3.70;2.38;;;10.80;99.90;;;9.55;79.74;99774.06;4965112;28;20035;-75
2022/10/01 02:42:00;;;;;;;5.30;2.58;;;10.90;99.90;;;9.59;78.97;99776.09;4967424;28;20118;-74
2022/10/01 02:44:37;;;;;;;4.75;2.50;;;10.90;99.90;;;9.50;79.33;99756.53;4961348;28;20121;-73
2022/10/01 02:47:11;;;;;;;4.95;2.13;;;10.90;99.90;;;9.63;78.64;99757.38;4963450;28;20031;-75
2022/10/01 02:49:40;;;;;;;5.32;2.30;;;10.90;99.90;;;9.65;78.24;99760.69;4962389;28;20405;-75
2022/10/01 02:52:35;;;;;;;3.78;2.10;;;11.00;99.90;;;9.62;78.55;99753.00;4963602;28;20050;-74
2022/10/01 02:55:24;;;;;;;4.30;2.50;;;11.00;99.90;;;9.59;79.59;99750.75;4967363;28;20043;-75
2022/10/01 02:57:50;;;;;;;6.07;2.30;;;10.90;99.90;;;9.54;79.09;99740.53;4967210;28;20135;-74
2022/10/01 03:00:20;;;;;;;5.70;2.42;;;10.90;99.90;;;9.59;78.95;99746.13;4963595;28;20382;-75
2022/10/01 03:02:47;;;;;;;3.83;1.98;;;10.90;99.90;;;9.56;78.94;99738.44;4959181;28;20081;-75
2022/10/01 03:05:14;;;;;;;5.57;2.50;;;10.90;99.90;;;9.58;78.33;99730.88;4963978;28;20031;-76
2022/10/01 03:07:40;;;;;;;3.37;1.90;;;10.90;99.90;;;9.57;78.00;99722.91;4963870;28;20077;-75
2022/10/01 03:10:08;;;;;;;4.75;2.30;;;10.90;99.90;;;9.52;78.44;99714.63;4963973;28;20794;-76
2022/10/01 03:12:34;;;;;;;3.90;2.10;;;10.90;99.90;;;9.64;78.26;99713.59;4965520;28;20129;-75
2022/10/01 03:15:01;;;;;;;4.10;2.33;;;11.00;99.90;;;9.55;78.63;99711.44;4966969;28;20042;-76
2022/10/01 03:17:28;;;;;;;3.97;1.75;;;10.90;99.90;;;9.61;78.47;99703.16;4965484;28;20062;-75
2022/10/01 03:19:54;;;;;;;3.03;2.00;;;11.00;99.90;;;9.57;78.75;99693.81;4965048;28;20417;-75
2022/10/01 03:22:21;;;;;;;7.95;2.28;;;11.00;99.90;;;9.64;77.79;99686.34;4963379;28;20039;-75
2022/10/01 03:24:49;;;;;;;3.67;2.13;;;11.00;99.90;;;9.68;78.37;99699.50;4964917;28;20031;-76
2022/10/01 03:27:16;;;;;;;5.40;2.13;;;11.00;99.90;;;9.64;78.59;99697.25;4966648;28;20548;-75
2022/10/01 03:29:43;;;;;;;3.65;2.10;;;11.00;99.90;;;9.70;77.93;99689.19;4964841;28;20035;-76
2022/10/01 03:32:09;;;;;;;4.10;2.00;;;11.00;99.90;;;9.75;78.01;99692.88;4966703;28;20051;-76
2022/10/01 03:34:35;;;;;;;3.38;2.10;;;11.10;99.90;;;9.77;77.20;99668.97;4961850;28;20073;-76
2022/10/01 03:37:01;;;;;;;2.78;1.88;;;11.10;99.90;;;9.78;76.16;99667.91;4965764;28;20113;-76
2022/10/01 03:39:26;;;;;;;4.72;2.30;;;11.20;99.90;;;9.93;75.71;99674.75;4964946;28;20022;-75
2022/10/01 03:41:52;;;;;;;5.10;2.00;;;11.30;99.90;;;9.97;75.08;99681.41;4967059;28;20525;-76
2022/10/01 03:44:18;;;;;;;3.80;1.95;;;11.30;99.90;;;9.92;76.37;99676.66;4965985;28;20034;-75
2022/10/01 03:46:44;;;;;;;5.60;2.20;;;11.30;99.90;;;9.88;76.84;99672.75;4965386;28;20031;-75
2022/10/01 03:49:09;;;;;;;4.45;2.20;;;11.30;99.90;;;9.91;77.05;99672.28;4965526;28;20023;-74
2022/10/01 03:51:36;;;;;;;5.47;2.05;;;11.20;99.90;;;9.93;76.94;99670.16;4962438;28;20409;-76
2022/10/01 03:54:04;;;;;;;3.20;2.00;;;11.20;99.90;;;9.87;77.66;99657.50;4962988;28;20045;-73
2022/10/01 03:56:30;;;;;;;3.83;2.00;;;11.20;99.90;;;9.95;76.40;99652.75;4967314;28;20552;-76
2022/10/01 03:58:56;;;;;;;5.65;2.20;;;11.30;99.90;;;9.98;76.42;99649.53;4967001;28;20125;-75
2022/10/01 04:01:22;;;;;;;5.00;2.33;;;11.30;99.90;;;9.90;77.09;99642.53;4962998;28;20161;-75
2022/10/01 04:03:49;;;;;;;4.82;2.20;;;11.30;99.90;;;9.90;76.65;99642.53;4964111;28;20560;-76
2022/10/01 04:06:15;;;;;;;5.40;2.30;;;11.30;99.90;;;10.03;76.19;99655.09;4960688;28;20043;-75
2022/10/01 04:08:41;;;;;;;3.35;2.10;;;11.30;99.90;;;9.97;77.23;99643.28;4966436;28;20027;-76
2022/10/01 04:11:07;;;;;;;4.20;2.28;;;11.30;99.90;;;9.92;76.80;99624.91;4966202;28;20054;-75
2022/10/01 04:13:34;;;;;;;3.67;2.22;;;11.40;99.90;;;10.07;76.47;99648.09;4964400;28;20045;-74
2022/10/01 04:16:02;;;;;;;4.20;2.38;;;11.40;99.90;;;10.08;76.39;99625.25;4964007;28;20113;-76
2022/10/01 04:18:28;;;;;;;3.13;1.83;;;11.40;99.90;;;10.08;76.20;99634.25;4960886;28;20552;-76
2022/10/01 04:20:54;;;;;;;4.28;2.05;;;11.40;99.90;;;9.97;77.80;99628.81;4962761;28;20050;-74
2022/10/01 04:23:21;;;;;;;4.60;2.00;;;11.40;99.90;;;10.00;77.91;99628.31;4962438;28;20478;-74
2022/10/01 04:25:47;;;;;;;3.65;1.90;;;11.30;99.90;;;9.96;78.14;99621.69;4965680;28;20130;-74
2022/10/01 04:28:13;;;;;;;7.90;2.70;;;11.30;99.90;;;9.95;78.04;99625.50;4966252;28;20570;-76
2022/10/01 04:30:43;;;;;;;4.88;2.20;;;11.30;99.90;;;9.87;79.19;99611.19;4960587;28;20037;-77
2022/10/01 04:33:15;;;;;;;4.40;2.10;;;11.20;99.90;;;9.86;79.58;99601.34;4962069;28;20437;-75
2022/10/01 04:35:42;;;;;;;4.32;2.17;;;11.20;99.90;;;9.79;80.91;99600.63;4955760;28;20088;-75
2022/10/01 04:38:15;;;;;;;4.33;2.13;;;11.20;99.90;;;9.84;79.83;99600.75;4964211;28;20035;-74
2022/10/01 04:40:41;;;;;;;5.18;2.30;;;11.20;99.90;;;9.67;82.17;99594.34;4965396;28;20031;-75
2022/10/01 04:43:08;;;;;;;4.53;2.35;;;11.10;99.90;;;9.42;84.44;99566.31;4965637;28;20050;-75
2022/10/01 04:45:36;;;;;;;7.03;2.60;;;11.00;99.90;;;9.43;87.11;99586.16;4961781;28;20033;-76
2022/10/01 04:48:02;;;;;;;4.88;2.40;;;10.80;99.90;;;9.33;87.71;99576.69;4960886;28;20340;-75
2022/10/01 04:50:28;;;;;;;4.90;2.63;;;10.70;99.90;;;9.17;90.36;99578.22;4960132;28;20034;-75
2022/10/01 04:52:54;;;;;;;5.53;2.58;;;10.60;99.90;;;9.01;91.56;99562.56;4964298;28;20023;-76
2022/10/01 04:55:21;;;;;;;5.93;2.88;;;10.50;99.90;;;9.05;93.06;99570.03;4969420;28;20034;-75
2022/10/01 04:57:48;;;;;;;4.87;3.00;;;10.50;99.90;;;9.00;96.08;99571.78;4969825;28;20026;-77
2022/10/01 05:00:20;;;;;;;4.78;2.80;;;10.40;99.90;;;8.88;98.50;99567.13;4969779;28;20027;-74
2022/10/01 05:02:48;;;;;;;3.90;2.60;;;10.30;99.90;;;8.86;99.52;99557.56;4964223;28;20398;-75
2022/10/01 05:05:15;;;;;;;;;;;10.30;99.90;;;8.78;100.00;99554.09;4966900;28;20035;-74
2022/10/01 05:07:41;;;;;;;5.80;2.85;;;10.20;99.90;;;8.75;100.00;99548.28;4967303;28;19997;-75
2022/10/01 05:10:12;;;;;;;6.32;2.97;;;10.10;99.90;;;8.63;100.00;99559.13;4968148;28;20058;-78
2022/10/01 05:12:38;;;;;;;5.70;3.05;;;10.10;99.90;;;8.66;100.00;99539.63;4967547;28;20031;-75
2022/10/01 05:15:05;;;;;;;5.75;3.58;;;10.00;99.90;;;8.54;100.00;99534.16;4966130;28;20037;-75
2022/10/01 05:17:33;;;;;;;5.13;2.80;;;10.00;99.90;;;8.53;100.00;99524.34;4964214;28;20170;-75
2022/10/01 05:20:01;;;;;;;5.85;2.92;;;9.90;99.90;;;8.49;100.00;99521.28;4959621;28;20027;-74
2022/10/01 05:22:27;;;;;;;9.20;2.88;;;9.90;99.90;;;8.52;100.00;99517.25;4958143;28;20521;-76
2022/10/01 05:24:53;;;;;;;5.80;3.13;;;9.90;99.90;;;8.49;100.00;99523.09;4967378;28;20038;-75
2022/10/01 05:27:19;;;;;;;4.95;3.03;;;9.90;99.90;;;8.43;100.00;99515.88;4967565;28;20519;-76
2022/10/01 05:29:45;;;;;;;4.40;2.80;;;9.80;99.90;;;8.39;100.00;99503.81;4968787;28;20031;-75
2022/10/01 05:32:12;;;;;;;10.25;3.42;;;9.80;99.90;;;8.31;100.00;99510.41;4966870;28;20034;-76
2022/10/01 05:34:38;;;;;;;4.10;2.75;;;9.70;99.90;;;8.38;100.00;99516.56;4959685;28;20427;-77
2022/10/01 05:37:05;;;;;;;6.57;3.42;;;9.80;99.90;;;8.28;100.00;99510.88;4951914;28;20046;-77
2022/10/01 05:39:31;;;;;;;5.22;3.10;;;9.70;99.90;;;8.31;100.00;99518.56;4952962;28;20033;-76
2022/10/01 05:41:58;;;;;;;5.70;3.03;;;9.70;99.90;;;8.30;100.00;99511.47;4954185;28;20031;-77
2022/10/01 05:44:24;;;;;;;6.25;3.90;;;9.70;99.90;;;8.23;100.00;99508.81;4954012;28;20045;-76
2022/10/01 05:46:52;;;;;;;6.63;3.67;;;9.60;99.90;;;8.21;100.00;99511.75;4966274;28;20049;-77
2022/10/01 05:49:18;;;;;;;7.13;3.38;;;9.60;99.90;;;8.23;100.00;99505.28;4963407;28;20544;-79
2022/10/01 05:51:44;;;;;;;5.45;3.50;;;9.60;99.90;;;8.21;100.00;99505.50;4966945;28;20126;-77
2022/10/01 05:54:12;;;;;;;9.00;4.60;;;9.70;99.90;;;8.14;100.00;99499.34;4968858;28;20298;-78
2022/10/01 05:56:38;;;;;;;6.72;3.97;;;9.60;99.90;;;8.13;100.00;99513.97;4963322;28;20038;-78
2022/10/01 05:59:04;;;;;;;6.53;4.30;;;9.60;99.90;;;8.10;100.00;99498.16;4963694;28;20068;-77
2022/10/01 06:01:31;;;;;;;6.43;3.75;;;9.50;99.90;;;8.11;100.00;99505.22;4968989;28;20522;-78
2022/10/01 06:03:57;;;;;;;6.30;3.60;;;9.50;99.90;;;8.13;100.00;99503.13;4965589;28;20535;-78
2022/10/01 06:06:26;;;;;;;7.47;4.20;;;9.50;99.90;;;8.05;100.00;99483.34;4957574;28;20033;-79
2022/10/01 06:08:52;;;;;;;6.25;3.83;;;9.50;99.90;;;8.15;100.00;99507.25;4963637;28;20031;-79
2022/10/01 06:11:21;;;;;;;8.63;4.53;;;9.50;99.90;;;8.13;100.00;99487.63;4965107;28;20035;-77
2022/10/01 06:13:47;;;;;;;5.65;3.70;;;9.50;99.90;;;8.11;100.00;99488.94;4966292;28;20034;-77
2022/10/01 06:16:14;;;;;;;5.97;3.70;;;9.50;99.90;;;8.04;100.00;99468.09;4965764;28;20038;-76
2022/10/01 06:18:40;;;;;;;6.22;4.28;;;9.50;99.90;;;8.13;100.00;99474.03;4970949;28;20030;-76
2022/10/01 06:21:08;;;;;;;7.00;4.43;;;9.50;99.90;;;8.11;100.00;99457.16;4961217;28;20028;-77
2022/10/01 06:23:35;;;;;;;8.52;4.28;;;9.60;99.90;;;8.08;100.00;99463.03;4951877;28;20415;-76
2022/10/01 06:26:07;;;;;;;7.80;5.00;;;9.50;99.90;;;8.02;100.00;99450.38;4965654;28;20050;-77
2022/10/01 06:28:33;;;;;;;8.18;4.25;;;9.50;99.90;;;8.10;100.00;99452.78;4954540;28;20026;-76
2022/10/01 06:31:03;;;;;;;6.82;4.43;;;9.50;99.90;;;8.13;100.00;99452.31;4952622;28;20027;-76
2022/10/01 06:33:29;;;;;;;8.98;4.93;;;9.50;99.90;;;8.13;100.00;99448.78;4959386;28;20039;-75
2022/10/01 06:35:54;;;;;;;6.78;4.38;;;9.50;99.90;;;8.13;100.00;99438.72;4964323;28;20081;-76
2022/10/01 06:38:22;;;;;;;8.20;4.43;;;9.50;99.90;;;8.16;100.00;99446.41;4963426;28;20070;-75
2022/10/01 06:40:57;;;;;;;6.72;4.47;;;9.60;99.90;;;8.16;100.00;99435.53;4962665;28;20069;-76
2022/10/01 06:43:26;;;;;;;7.90;4.35;;;9.60;99.90;;;8.18;100.00;99447.00;4962209;28;20114;-75
2022/10/01 06:45:52;;;;;;;7.32;3.90;;;9.60;99.90;;;8.19;100.00;99429.66;4964305;28;20386;-75
2022/10/01 06:48:20;;;;;;;7.70;4.40;;;9.60;99.90;;;8.23;100.00;99419.16;4963306;28;20027;-75
2022/10/01 06:50:48;;;;;;;7.73;4.27;;;9.60;99.90;;;8.23;100.00;99405.56;4967500;28;20137;-75
2022/10/01 06:53:16;;;;;;;7.93;4.25;;;9.60;99.90;;;8.18;100.00;99416.31;4967453;28;20398;-76
2022/10/01 06:55:43;;;;;;;6.57;3.90;;;9.60;99.90;;;8.21;100.00;99407.69;4962920;28;20038;-77
2022/10/01 06:58:17;;;;;;;6.93;3.88;;;9.60;99.90;;;8.24;100.00;99411.84;4961626;28;20108;-76
2022/10/01 07:00:44;;;;;;;6.03;3.92;;;9.60;99.90;;;8.23;100.00;99402.03;4954796;28;20066;-76
2022/10/01 07:03:19;;;;;;;6.97;3.92;;;9.70;99.90;;;8.28;100.00;99397.56;4962873;28;20465;-76
2022/10/01 07:05:46;;;;;;;5.53;3.95;;;9.70;99.90;;;8.30;100.00;99408.19;4967024;28;20367;-76
2022/10/01 07:08:13;;;;;;;6.57;4.38;;;9.70;99.90;;;8.32;100.00;99392.50;4967422;28;20046;-77
2022/10/01 07:10:41;;;;;;;6.15;3.70;;;9.70;99.90;;;8.34;100.00;99385.75;4963455;28;20027;-76
2022/10/01 07:13:16;;;;;;;8.50;3.92;;;9.70;99.90;;;8.37;100.00;99389.09;4958841;28;20054;-78
2022/10/01 07:15:43;;;;;;;7.20;3.80;;;9.80;99.90;;;8.37;100.00;99378.22;4959356;28;20037;-76
2022/10/01 07:18:11;;;;;;;6.43;3.40;;;9.80;99.90;;;8.36;100.00;99371.94;4959558;28;20367;-76
2022/10/01 07:20:39;;;;;;;8.45;3.17;;;9.80;99.90;;;8.38;100.00;99379.88;4965419;28;20035;-76
2022/10/01 07:23:09;;;;;;;9.32;3.90;;;9.80;99.90;;;8.37;100.00;99389.91;4959778;28;20031;-75
2022/10/01 07:25:37;;;;;;;7.60;3.20;;;9.80;99.90;;;8.44;100.00;99381.66;4962852;28;20520;-78
2022/10/01 07:28:06;;;;;;;4.72;3.28;;;9.80;99.90;;;8.43;100.00;99388.97;4952346;28;20034;-76
2022/10/01 07:30:32;;;;;;;7.05;3.17;;;9.80;99.90;;;8.43;100.00;99380.81;4960821;28;20525;-77
2022/10/01 07:32:58;;;;;;;4.75;3.30;;;9.80;99.90;;;8.47;100.00;99390.13;4956998;28;20066;-76
2022/10/01 07:35:24;;;;;;;7.05;3.10;;;9.80;99.90;;;8.43;100.00;99390.88;4964880;28;20124;-76
2022/10/01 07:37:54;;;;;;;5.13;3.10;;;9.80;99.90;;;8.46;100.00;99380.34;4964359;28;20038;-78
2022/10/01 07:40:20;;;;;;;5.82;3.05;;;9.80;99.90;;;8.45;100.00;99405.84;4962608;28;20027;-76
2022/10/01 07:42:55;;;;;;;4.28;2.60;;;9.90;99.90;;;8.43;100.00;99380.00;4960222;28;20035;-76
2022/10/01 07:45:22;;;;;;;5.88;2.80;;;9.80;99.90;;;8.44;100.00;99390.59;4959334;28;20030;-77
2022/10/01 07:47:57;;;;;;;5.53;3.13;;;9.80;99.90;;;8.46;100.00;99393.91;4965146;28;20027;-76
2022/10/01 07:50:25;;;;;;;5.18;3.10;;;9.90;99.90;;;8.48;100.00;99393.69;4956470;28;20486;-75
2022/10/01 07:52:55;;;;;;;5.53;3.10;;;9.80;99.90;;;8.44;100.00;99387.88;4961462;28;20053;-76
2022/10/01 07:55:27;;;;;;;4.93;3.00;;;9.80;99.90;;;8.49;100.00;99390.78;4962128;28;20173;-75
2022/10/01 07:57:56;;;;;;;6.30;3.15;;;9.90;99.90;;;8.53;100.00;99395.75;4980369;28;20552;-75
2022/10/01 08:00:24;;;;;;;4.47;2.80;;;9.90;99.90;;;8.59;100.00;99392.09;4964262;28;20102;-75
2022/10/01 08:02:54;;;;;;;5.22;3.20;;;9.90;99.90;;;8.62;100.00;99376.16;4961334;28;20049;-76
2022/10/01 08:05:24;;;;;;;5.00;2.72;;;10.00;99.90;;;8.66;100.00;99381.94;4960613;28;20185;-77
2022/10/01 08:07:50;;;;;;;4.97;2.83;;;10.00;99.90;;;8.68;100.00;99387.97;4964200;28;20027;-77
2022/10/01 08:10:19;;;;;;;4.70;3.30;;;10.00;99.90;;;8.65;100.00;99384.91;4964840;28;20053;-75
2022/10/01 08:12:45;;;;;;;5.32;3.30;;;10.00;99.90;;;8.69;100.00;99380.66;4953152;28;20039;-75
2022/10/01 08:15:16;;;;;;;5.53;3.05;;;10.10;99.90;;;8.76;100.00;99384.91;4962467;28;20097;-76
2022/10/01 08:17:44;;;;;;;5.15;3.22;;;10.10;99.90;;;8.74;100.00;99388.91;4962815;28;20169;-76
2022/10/01 08:20:12;;;;;;;7.47;3.42;;;10.10;99.90;;;8.77;100.00;99381.13;4958186;28;20081;-76
2022/10/01 08:22:41;;;;;;;4.38;3.28;;;10.10;99.90;;;8.73;100.00;99382.63;4959379;28;20039;-78
2022/10/01 08:25:07;;;;;;;4.47;3.00;;;10.10;99.90;;;8.75;100.00;99374.25;4965204;28;20026;-76
2022/10/01 08:27:32;;;;;;;5.63;2.88;;;10.10;99.90;;;8.78;100.00;99396.38;4956331;28;20544;-77
2022/10/01 08:29:58;;;;;;;4.38;2.63;;;10.20;99.90;;;8.80;100.00;99389.88;4953551;28;20058;-76
2022/10/01 08:32:26;;;;;;;4.55;2.55;;;10.20;99.90;;;8.86;100.00;99392.47;4958683;28;20106;-75
2022/10/01 08:34:54;;;;;;;3.63;2.40;;;10.20;99.90;;;8.93;100.00;99392.34;4953572;28;20035;-76
2022/10/01 08:37:27;;;;;;;3.30;2.00;;;10.20;99.90;;;8.94;100.00;99393.19;4957726;28;20604;-76
2022/10/01 08:39:55;;;;;;;3.45;2.17;;;10.30;99.90;;;8.99;100.00;99396.03;4965411;28;20030;-77
2022/10/01 08:42:54;;;;;;;2.78;1.88;;;10.30;99.90;;;9.03;100.00;99408.06;4951702;28;20067;-76
2022/10/01 08:45:44;;;;;;;3.03;1.65;;;10.30;99.90;;;9.04;100.00;99382.53;4954533;28;20047;-77
2022/10/01 08:48:52;;;;;;;3.58;1.63;;;10.40;99.90;;;9.10;100.00;99407.97;4957639;28;20031;-76
2022/10/01 08:51:26;;;;;;;3.70;1.55;;;10.40;99.90;;;9.14;100.00;99393.63;4959674;28;20059;-76
2022/10/01 08:54:29;;;;;;;2.20;1.50;;;10.50;99.90;;;9.24;100.00;99401.19;4963261;28;20042;-77
2022/10/01 08:57:01;;;;;;;2.70;1.42;;;10.50;99.90;;;9.29;100.00;99401.31;4967647;28;20042;-79
2022/10/01 08:59:43;;;;;;;2.40;1.50;;;10.60;99.90;;;9.23;100.00;99396.81;4958887;28;20026;-78
2022/10/01 09:02:30;;;;;;;3.05;1.27;;;10.70;99.90;;;9.37;100.00;99402.84;4958251;28;20054;-77
2022/10/01 09:05:04;;;;;;;2.15;1.23;;;10.70;99.90;;;9.40;100.00;99406.97;4962681;28;20739;-79
2022/10/01 09:07:57;;;;;;;1.90;1.10;;;10.70;99.90;;;9.37;100.00;99408.28;4960931;28;20019;-77
2022/10/01 09:10:42;;;;;;;2.38;1.25;;;10.70;99.90;;;9.32;100.00;99400.84;4961662;28;20196;-80
2022/10/01 09:13:58;;;;;;;3.92;1.65;;;10.70;99.90;;;9.34;100.00;99415.03;4954421;28;21151;-76
2022/10/01 09:16:59;;;;;;;2.47;1.15;;;10.60;99.90;;;9.33;100.00;99427.00;4956562;28;20114;-77
2022/10/01 09:20:03;;;;;;;2.85;1.33;;;10.70;99.90;;;9.34;100.00;99415.03;4959368;28;20086;-76
2022/10/01 09:23:16;;;;;;;2.35;1.50;;;10.70;99.90;;;9.35;100.00;99408.53;4959674;28;20143;-79
2022/10/01 09:25:44;;;;;;;4.38;1.30;;;10.70;99.90;;;9.42;100.00;99415.72;4959569;28;20037;-79
2022/10/01 09:28:18;;;;;;;1.65;1.10;;;10.70;99.90;;;9.52;100.00;99421.38;4962415;28;20475;-79
2022/10/01 09:31:11;;;;;;;1.90;1.30;;;10.80;99.90;;;9.62;100.00;99426.22;4960089;28;20116;-81
2022/10/01 09:33:47;;;;;;;1.60;1.08;;;10.90;99.90;;;9.64;100.00;99419.47;4961931;28;20022;-78
2022/10/01 09:37:02;;;;;;;1.63;1.27;;;11.00;99.90;;;9.71;100.00;99418.50;4959266;28;20371;-77
2022/10/01 09:39:50;;;;;;;3.47;1.17;;;11.00;99.90;;;9.82;100.00;99422.28;4951564;28;20062;-79
2022/10/01 09:42:17;;;;;;;2.38;1.33;;;11.10;99.90;;;9.76;100.00;99403.09;4966149;28;20066;-77
2022/10/01 09:44:42;;;;;;;1.48;1.00;;;11.10;99.90;;;9.99;100.00;99416.88;4961023;28;20069;-77
2022/10/01 09:47:19;;;;;;;3.63;1.25;;;11.30;99.90;;;10.17;100.00;99421.28;4962449;28;20022;-80
2022/10/01 09:49:47;;;;;;;1.75;1.00;;;11.40;99.90;;;10.24;100.00;99412.97;4963079;28;20109;-78
2022/10/01 09:52:25;;;;;;;1.90;1.00;;;11.50;99.90;;;10.29;100.00;99402.16;4965382;28;20062;-79
2022/10/01 09:54:57;;;;;;;;;;;11.50;99.90;;;10.48;100.00;99403.63;4963397;28;20143;-79
2022/10/01 09:57:34;;;;;;;3.03;1.10;;;11.70;99.90;;;10.77;100.00;99409.00;4962114;28;19914;-77
2022/10/01 10:00:17;;;;;;;2.05;0.90;;;12.00;99.90;;;11.03;100.00;99406.66;4963029;28;20035;-77
2022/10/01 10:02:48;;;;;;;2.03;0.80;;;12.30;99.90;;;11.08;100.00;99411.38;4959045;28;20375;-79
2022/10/01 10:05:23;;;;;;;2.83;0.90;;;12.30;99.90;;;11.03;100.00;99401.19;4967732;28;20038;-77
2022/10/01 10:07:53;;;;;;;1.02;0.70;;;12.40;99.90;;;11.40;100.00;99415.34;4966156;28;20045;-78
2022/10/01 10:10:26;;;;;;;1.42;0.82;;;12.60;99.90;;;11.36;100.00;99407.66;4963375;28;20047;-79
2022/10/01 10:13:03;;;;;;;1.73;0.65;;;12.80;99.90;;;11.60;100.00;99420.28;4962157;28;20073;-76
2022/10/01 10:15:31;;;;;;;1.23;0.70;;;12.90;99.90;;;11.87;100.00;99427.69;4966096;28;20031;-78
2022/10/01 10:18:07;;;;;;;;;;;13.20;99.90;;;12.39;100.00;99442.78;4965629;28;20509;-79
2022/10/01 10:20:42;;;;;;;2.53;1.20;;;13.70;99.90;;;12.25;100.00;99423.22;4960258;28;19914;-79
2022/10/01 10:23:18;;;;;;;0.82;0.60;;;13.70;99.90;;;12.26;100.00;99430.34;4956111;28;20054;-79
2022/10/01 10:26:01;;;;;;;1.30;0.82;;;13.70;99.90;;;12.05;100.00;99426.56;4956744;28;20382;-78
2022/10/01 10:28:41;;;;;;;1.02;0.70;;;13.50;99.90;;;11.83;100.00;99430.09;4965673;28;20035;-81
2022/10/01 10:31:18;;;;;;;0.80;0.70;;;13.30;99.90;;;11.87;100.00;99425.78;4961787;28;20030;-79
2022/10/01 10:34:14;;;;;;;1.00;0.80;;;13.30;99.90;;;12.35;100.00;99444.38;4962866;28;20471;-79
2022/10/01 10:36:42;;;;;;;1.13;0.82;;;13.50;99.90;;;13.27;99.50;99435.28;4962529;28;20043;-78
2022/10/01 10:39:23;;;;;;;2.05;0.90;;;14.30;99.90;;;13.35;96.31;99437.50;4960530;28;20050;-79
2022/10/01 10:41:51;;;;;;;0.93;0.60;;;14.60;99.90;;;13.29;98.41;99443.22;4961699;28;20113;-78
2022/10/01 10:44:20;;;;;;;;;;;14.60;99.90;;;13.09;97.53;99451.03;4962206;28;20059;-79
2022/10/01 10:46:49;;;;;;;2.38;0.70;;;14.50;99.90;;;13.26;98.62;99458.28;4958442;28;19914;-80
2022/10/01 10:49:29;;;;;;;0.82;0.73;;;14.60;99.90;;;13.43;98.01;99463.63;4959564;28;20093;-80